Time;durP1;ratioP1;P1;durP2;ratioP2;P2;SDS_P1;SDS_P2;PMS_P1;PMS_P2;Temp;Humidity;BMP_temperature;BMP_pressure;BME280_temperature;BME280_humidity;BME280_pressure;Samples;Min_cycle;Max_cycle;Signal;HPM_P1;HPM_P2
2023/07/23 00:01:49;;;;;;;35.40;11.02;;;28.40;91.00;;;;;;5094019;28;20145;-69
2023/07/23 00:04:54;;;;;;;28.58;11.35;;;28.40;90.90;;;;;;5094038;28;20043;-69
2023/07/23 00:07:58;;;;;;;27.63;10.70;;;28.40;91.10;;;;;;5092789;28;20039;-69
2023/07/23 00:11:02;;;;;;;32.58;10.32;;;28.40;90.90;;;;;;5093772;28;20050;-69
2023/07/23 00:14:06;;;;;;;26.13;10.30;;;28.40;91.20;;;;;;5093721;28;20039;-69
2023/07/23 00:17:10;;;;;;;37.42;12.07;;;28.30;91.20;;;;;;5093214;28;20047;-69
2023/07/23 00:20:15;;;;;;;32.20;10.63;;;28.30;91.40;;;;;;5093552;28;20035;-69
2023/07/23 00:23:19;;;;;;;23.85;10.60;;;28.30;91.60;;;;;;5093334;28;20421;-69
2023/07/23 00:26:24;;;;;;;24.50;11.40;;;28.30;91.70;;;;;;5093552;28;20055;-69
2023/07/23 00:29:28;;;;;;;30.65;11.32;;;28.20;91.60;;;;;;5092603;28;20058;-69
2023/07/23 00:32:34;;;;;;;31.85;11.85;;;28.20;91.80;;;;;;5093574;28;20047;-69
2023/07/23 00:35:39;;;;;;;24.80;11.25;;;28.10;92.00;;;;;;5092549;28;20039;-69
2023/07/23 00:38:44;;;;;;;29.95;11.23;;;28.10;91.80;;;;;;5093417;28;20058;-69
2023/07/23 00:41:50;;;;;;;36.92;12.30;;;28.00;91.50;;;;;;5093379;28;20126;-69
2023/07/23 00:44:54;;;;;;;32.70;11.30;;;27.80;91.70;;;;;;5093094;28;20447;-69
2023/07/23 00:47:59;;;;;;;31.90;11.68;;;27.90;91.30;;;;;;5092126;28;20494;-69
2023/07/23 00:51:03;;;;;;;31.17;11.48;;;27.80;91.00;;;;;;5092826;28;20396;-69
2023/07/23 00:54:07;;;;;;;26.80;10.73;;;27.70;90.80;;;;;;5092158;28;20039;-69
2023/07/23 00:57:11;;;;;;;29.10;12.02;;;27.50;91.20;;;;;;5091936;28;20071;-69
2023/07/23 01:00:16;;;;;;;31.90;10.90;;;27.50;91.00;;;;;;5091798;28;20035;-69
2023/07/23 01:03:20;;;;;;;33.25;12.63;;;27.60;91.10;;;;;;5092625;28;20062;-69
2023/07/23 01:06:27;;;;;;;31.10;12.93;;;27.60;91.40;;;;;;5092846;28;20035;-69
2023/07/23 01:09:32;;;;;;;29.27;11.52;;;27.60;91.60;;;;;;5091857;28;20047;-69
2023/07/23 01:12:38;;;;;;;25.73;11.65;;;27.60;91.40;;;;;;5092821;28;20098;-69
2023/07/23 01:15:45;;;;;;;33.03;11.32;;;27.60;91.20;;;;;;5092615;28;20043;-68
2023/07/23 01:18:50;;;;;;;30.38;11.20;;;27.60;91.20;;;;;;5092359;28;20510;-69
2023/07/23 01:22:04;;;;;;;26.35;10.65;;;27.60;91.40;;;;;;5091661;28;20150;-69
2023/07/23 01:25:08;;;;;;;22.92;10.00;;;27.60;90.00;;;;;;5091884;28;20047;-69
2023/07/23 01:28:12;;;;;;;22.80;9.32;;;27.60;88.90;;;;;;5091343;28;20051;-69
2023/07/23 01:31:16;;;;;;;22.23;8.73;;;27.60;88.20;;;;;;5092242;28;20047;-69
2023/07/23 01:34:21;;;;;;;19.73;8.95;;;27.60;88.00;;;;;;5091467;28;20514;-69
2023/07/23 01:37:25;;;;;;;26.48;10.93;;;27.60;88.50;;;;;;5091081;28;20078;-69
2023/07/23 01:40:30;;;;;;;23.52;8.98;;;27.60;89.60;;;;;;5092089;28;20043;-69
2023/07/23 01:43:35;;;;;;;28.80;9.90;;;27.50;89.50;;;;;;5091083;28;20046;-69
2023/07/23 01:46:39;;;;;;;33.50;10.15;;;27.50;89.20;;;;;;5092076;28;20043;-69
2023/07/23 01:49:43;;;;;;;27.75;9.52;;;27.40;88.80;;;;;;5091680;28;20526;-69
2023/07/23 01:52:47;;;;;;;32.70;9.73;;;27.30;88.70;;;;;;5091092;28;20051;-69
2023/07/23 01:55:51;;;;;;;20.92;8.68;;;27.30;88.20;;;;;;5091972;28;20514;-69
2023/07/23 01:58:55;;;;;;;26.02;9.40;;;27.20;88.00;;;;;;5091044;28;20043;-69
2023/07/23 02:02:06;;;;;;;21.00;8.88;;;27.10;87.60;;;;;;5090882;28;20035;-69
2023/07/23 02:05:10;;;;;;;29.15;7.97;;;27.10;87.80;;;;;;5090511;28;20043;-69
2023/07/23 02:08:14;;;;;;;27.77;8.43;;;27.20;86.70;;;;;;5091590;28;20502;-70
2023/07/23 02:11:17;;;;;;;24.85;9.02;;;27.20;86.80;;;;;;5090290;28;20035;-69
2023/07/23 02:14:21;;;;;;;22.75;8.68;;;27.30;87.40;;;;;;5091338;28;20043;-69
2023/07/23 02:17:25;;;;;;;24.45;9.82;;;27.20;87.30;;;;;;5090188;28;20059;-69
2023/07/23 02:20:30;;;;;;;21.98;9.13;;;27.00;88.30;;;;;;5091260;28;20043;-68
2023/07/23 02:23:37;;;;;;;20.80;8.98;;;26.90;88.80;;;;;;5090444;28;20063;-68
2023/07/23 02:26:40;;;;;;;20.50;8.52;;;26.80;88.60;;;;;;5090508;28;20055;-69
2023/07/23 02:29:44;;;;;;;34.88;9.63;;;26.70;88.10;;;;;;5090670;28;20047;-69
2023/07/23 02:32:48;;;;;;;24.50;8.85;;;26.70;88.10;;;;;;5091152;28;20525;-68
2023/07/23 02:35:52;;;;;;;26.38;9.10;;;26.80;89.10;;;;;;5090213;28;20051;-68
2023/07/23 02:38:56;;;;;;;21.67;8.88;;;27.00;88.00;;;;;;5090841;28;20059;-69
2023/07/23 02:42:00;;;;;;;23.55;7.82;;;27.10;87.20;;;;;;5091119;28;20039;-69
2023/07/23 02:45:05;;;;;;;23.67;8.50;;;27.20;85.80;;;;;;5091127;28;20047;-69
2023/07/23 02:48:09;;;;;;;21.27;8.82;;;27.20;86.60;;;;;;5090255;28;20107;-68
2023/07/23 02:51:12;;;;;;;24.70;8.32;;;27.30;85.80;;;;;;5090882;28;20165;-69
2023/07/23 02:54:16;;;;;;;27.83;9.20;;;27.30;86.70;;;;;;5091123;28;20055;-69
2023/07/23 02:57:20;;;;;;;24.85;9.25;;;27.20;86.70;;;;;;5089974;28;20047;-69
2023/07/23 03:00:24;;;;;;;19.55;8.07;;;27.10;87.20;;;;;;5090172;28;20507;-69
2023/07/23 03:03:28;;;;;;;18.77;8.70;;;27.00;86.90;;;;;;5090270;28;20039;-69
2023/07/23 03:06:32;;;;;;;22.73;9.10;;;27.00;87.40;;;;;;5091047;28;20059;-69
2023/07/23 03:09:36;;;;;;;22.48;8.70;;;26.70;87.50;;;;;;5090841;28;20051;-69
2023/07/23 03:12:40;;;;;;;21.15;7.68;;;26.40;87.00;;;;;;5090978;28;20043;-69
2023/07/23 03:15:44;;;;;;;29.92;8.32;;;26.20;87.10;;;;;;5089949;28;20047;-69
2023/07/23 03:18:48;;;;;;;21.27;8.10;;;26.10;86.80;;;;;;5090616;28;20047;-69
2023/07/23 03:21:52;;;;;;;24.23;8.50;;;26.00;86.40;;;;;;5089641;28;20395;-69
2023/07/23 03:24:56;;;;;;;21.27;7.63;;;26.00;86.80;;;;;;5090540;28;20051;-69
2023/07/23 03:28:00;;;;;;;19.63;7.43;;;26.10;86.50;;;;;;5090660;28;20039;-69
2023/07/23 03:31:04;;;;;;;25.35;8.88;;;26.20;85.70;;;;;;5090485;28;20067;-69
2023/07/23 03:34:07;;;;;;;24.23;8.32;;;26.40;85.60;;;;;;5090418;28;20051;-69
2023/07/23 03:37:11;;;;;;;23.85;8.45;;;26.40;85.90;;;;;;5090651;28;20051;-69
2023/07/23 03:40:16;;;;;;;26.25;8.77;;;26.40;86.60;;;;;;5090529;28;20221;-69
2023/07/23 03:43:20;;;;;;;24.00;9.10;;;26.40;87.30;;;;;;5094266;28;20185;-69
2023/07/23 03:46:23;;;;;;;22.70;8.20;;;26.30;88.10;;;;;;5095440;28;20430;-69
2023/07/23 03:49:27;;;;;;;23.10;8.23;;;26.30;88.30;;;;;;5093350;28;20411;-69
2023/07/23 03:52:31;;;;;;;21.45;9.63;;;26.30;88.60;;;;;;5094254;28;20043;-69
2023/07/23 03:55:35;;;;;;;23.85;8.15;;;26.40;88.70;;;;;;5093868;28;20596;-69
2023/07/23 03:58:39;;;;;;;29.10;9.73;;;26.40;88.80;;;;;;5094020;28;20520;-69
2023/07/23 04:01:46;;;;;;;31.77;8.27;;;26.50;88.60;;;;;;5094016;28;20522;-69
2023/07/23 04:04:49;;;;;;;30.25;8.77;;;26.50;89.10;;;;;;5093789;28;20043;-69
2023/07/23 04:07:53;;;;;;;22.42;8.13;;;26.50;89.00;;;;;;5093982;28;20051;-69
2023/07/23 04:10:57;;;;;;;22.17;9.35;;;26.50;89.10;;;;;;5093569;28;20055;-69
2023/07/23 04:14:02;;;;;;;22.75;9.50;;;26.50;89.50;;;;;;5093560;28;20043;-69
2023/07/23 04:17:05;;;;;;;24.88;8.30;;;26.60;89.60;;;;;;5093315;28;20051;-69
2023/07/23 04:20:10;;;;;;;17.70;8.18;;;26.70;89.50;;;;;;5093423;28;20043;-69
2023/07/23 04:23:17;;;;;;;21.38;8.93;;;27.00;89.20;;;;;;5092397;28;20047;-69
2023/07/23 04:26:25;;;;;;;21.92;8.38;;;27.20;88.40;;;;;;5092546;28;20047;-70
2023/07/23 04:29:30;;;;;;;21.73;9.02;;;27.30;87.70;;;;;;5092066;28;20043;-69
2023/07/23 04:32:34;;;;;;;26.48;9.40;;;27.40;87.00;;;;;;5093294;28;20098;-69
2023/07/23 04:35:38;;;;;;;36.30;10.07;;;27.40;87.20;;;;;;5092599;28;20047;-69
2023/07/23 04:38:43;;;;;;;29.23;9.93;;;27.40;86.00;;;;;;5092581;28;20051;-69
2023/07/23 04:41:47;;;;;;;31.85;10.85;;;27.50;85.50;;;;;;5093164;28;20047;-69
2023/07/23 04:44:51;;;;;;;29.45;10.57;;;27.50;85.20;;;;;;5093328;28;20042;-69
2023/07/23 04:47:55;;;;;;;25.75;9.13;;;27.50;85.80;;;;;;5093165;28;20043;-69
2023/07/23 04:51:03;;;;;;;24.08;9.77;;;27.50;88.40;;;;;;5093128;28;20059;-69
2023/07/23 04:54:07;;;;;;;32.97;10.45;;;27.40;89.20;;;;;;5092584;28;20043;-69
2023/07/23 04:57:11;;;;;;;27.05;11.57;;;27.30;90.10;;;;;;5092936;28;20055;-69
2023/07/23 05:00:15;;;;;;;28.73;11.63;;;27.20;90.60;;;;;;5092885;28;20502;-69
2023/07/23 05:03:20;;;;;;;25.23;10.88;;;27.20;90.80;;;;;;5093032;28;20051;-69
2023/07/23 05:06:27;;;;;;;42.15;11.10;;;27.20;90.60;;;;;;5092868;28;20047;-69
2023/07/23 05:09:31;;;;;;;25.17;9.55;;;27.10;91.10;;;;;;5092702;28;20059;-69
2023/07/23 05:12:35;;;;;;;23.58;10.00;;;27.20;90.90;;;;;;5092579;28;20043;-69
2023/07/23 05:15:39;;;;;;;47.80;10.32;;;27.40;90.80;;;;;;5092611;28;20043;-69
2023/07/23 05:18:43;;;;;;;28.10;9.90;;;27.70;90.50;;;;;;5092196;28;20051;-69
2023/07/23 05:21:48;;;;;;;30.83;10.57;;;27.80;90.30;;;;;;5092693;28;20039;-69
2023/07/23 05:24:52;;;;;;;35.47;11.43;;;27.90;90.10;;;;;;5092139;28;20055;-69
2023/07/23 05:27:57;;;;;;;35.13;11.02;;;27.80;90.00;;;;;;5092032;28;20043;-69
2023/07/23 05:31:01;;;;;;;28.08;10.50;;;27.70;89.90;;;;;;5092181;28;20411;-69
2023/07/23 05:34:05;;;;;;;27.45;9.93;;;27.70;89.90;;;;;;5092163;28;20039;-69
2023/07/23 05:37:09;;;;;;;25.63;9.57;;;27.80;89.70;;;;;;5092691;28;20050;-69
2023/07/23 05:40:12;;;;;;;30.63;9.93;;;27.80;89.00;;;;;;5091782;28;20043;-69
2023/07/23 05:43:17;;;;;;;26.20;9.15;;;27.70;87.80;;;;;;5092041;28;20536;-69
2023/07/23 05:46:21;;;;;;;30.35;11.27;;;27.80;88.30;;;;;;5092089;28;20039;-69
2023/07/23 05:49:25;;;;;;;33.20;10.15;;;27.90;88.70;;;;;;5091591;28;20043;-69
2023/07/23 05:52:29;;;;;;;43.75;10.15;;;28.20;89.40;;;;;;5092093;28;20498;-69
2023/07/23 05:55:33;;;;;;;24.73;11.02;;;28.30;89.40;;;;;;5092051;28;20055;-69
2023/07/23 05:58:37;;;;;;;32.20;11.13;;;28.50;89.40;;;;;;5091806;28;20071;-69
2023/07/23 06:01:42;;;;;;;28.08;10.23;;;28.70;89.60;;;;;;5091671;28;20043;-69
2023/07/23 06:04:46;;;;;;;32.05;9.05;;;29.00;88.80;;;;;;5090887;28;20059;-69
2023/07/23 06:07:49;;;;;;;28.52;7.93;;;29.30;87.90;;;;;;5091863;28;20047;-69
2023/07/23 06:10:53;;;;;;;22.38;7.90;;;29.50;86.00;;;;;;5091513;28;20043;-69
2023/07/23 06:13:58;;;;;;;27.85;8.60;;;29.60;83.90;;;;;;5091701;28;20050;-70
2023/07/23 06:17:02;;;;;;;28.20;8.43;;;29.80;83.90;;;;;;5091360;28;20059;-70
2023/07/23 06:20:07;;;;;;;22.42;8.27;;;30.00;83.70;;;;;;5091297;28;20038;-70
2023/07/23 06:23:11;;;;;;;29.77;8.90;;;30.20;83.70;;;;;;5091457;28;20202;-69
2023/07/23 06:26:15;;;;;;;38.67;10.65;;;30.50;83.30;;;;;;5091472;28;20063;-70
2023/07/23 06:29:20;;;;;;;34.90;10.93;;;30.80;82.70;;;;;;5090976;28;20040;-70
2023/07/23 06:32:27;;;;;;;39.80;10.52;;;31.00;82.80;;;;;;5091429;28;20043;-70
2023/07/23 06:35:37;;;;;;;39.67;10.35;;;31.30;82.80;;;;;;5090971;28;20039;-69
2023/07/23 06:38:41;;;;;;;49.58;11.32;;;31.50;82.70;;;;;;5091468;28;20146;-70
2023/07/23 06:41:45;;;;;;;42.85;10.68;;;31.70;83.00;;;;;;5091176;28;20050;-70
2023/07/23 06:44:49;;;;;;;28.40;10.77;;;32.00;83.40;;;;;;5091345;28;20610;-70
2023/07/23 06:47:53;;;;;;;43.83;10.48;;;32.30;82.90;;;;;;5091068;28;20035;-70
2023/07/23 06:50:57;;;;;;;41.25;10.35;;;32.50;83.70;;;;;;5090772;28;20050;-70
2023/07/23 06:54:02;;;;;;;38.88;10.10;;;32.60;82.90;;;;;;5091178;28;20506;-70
2023/07/23 06:57:06;;;;;;;44.08;11.40;;;32.40;84.80;;;;;;5090989;28;20047;-70
2023/07/23 07:00:12;;;;;;;43.15;12.75;;;32.10;85.90;;;;;;5090355;28;20051;-70
2023/07/23 07:03:16;;;;;;;45.13;11.90;;;31.60;87.60;;;;;;5091076;28;20055;-69
2023/07/23 07:06:20;;;;;;;36.42;11.52;;;31.40;88.90;;;;;;5090914;28;20039;-69
2023/07/23 07:09:24;;;;;;;36.95;11.63;;;31.80;90.20;;;;;;5090832;28;20059;-70
2023/07/23 07:12:28;;;;;;;36.30;12.15;;;32.30;90.70;;;;;;5090973;28;20047;-69
2023/07/23 07:15:32;;;;;;;36.28;11.32;;;32.60;89.20;;;;;;5090850;28;20055;-70
2023/07/23 07:18:36;;;;;;;44.72;11.38;;;33.00;89.40;;;;;;5094753;28;20047;-70
2023/07/23 07:21:41;;;;;;;36.53;10.65;;;33.20;88.40;;;;;;5094651;28;20597;-69
2023/07/23 07:24:45;;;;;;;37.80;10.65;;;33.40;88.00;;;;;;5094542;28;20138;-70
2023/07/23 07:27:49;;;;;;;27.90;10.00;;;33.60;87.20;;;;;;5095234;28;20043;-69
2023/07/23 07:30:58;;;;;;;36.92;9.23;;;34.80;85.20;;;;;;5094305;28;20047;-69
2023/07/23 07:34:02;;;;;;;27.70;8.82;;;36.00;82.10;;;;;;5094234;28;20040;-69
2023/07/23 07:37:06;;;;;;;34.42;8.80;;;37.00;79.20;;;;;;5094537;28;20051;-70
2023/07/23 07:40:13;;;;;;;31.73;9.57;;;37.50;77.30;;;;;;5094472;28;20291;-69
2023/07/23 07:43:17;;;;;;;27.38;8.55;;;37.90;77.00;;;;;;5094573;28;20059;-70
2023/07/23 07:46:23;;;;;;;35.85;8.50;;;38.00;77.40;;;;;;5094179;28;20391;-70
2023/07/23 07:49:27;;;;;;;36.03;10.00;;;38.10;76.80;;;;;;5094090;28;20054;-70
2023/07/23 07:52:31;;;;;;;33.28;8.80;;;38.30;76.50;;;;;;5094048;28;20043;-69
2023/07/23 07:55:42;;;;;;;31.38;9.57;;;38.00;76.10;;;;;;5094079;28;20051;-70
2023/07/23 07:58:47;;;;;;;32.05;8.95;;;37.40;77.90;;;;;;5093811;28;20050;-70
2023/07/23 08:01:50;;;;;;;29.67;8.88;;;36.90;79.20;;;;;;5093223;28;20531;-69
2023/07/23 08:04:55;;;;;;;35.03;9.23;;;36.60;79.50;;;;;;5092949;28;20396;-69
2023/07/23 08:08:00;;;;;;;34.85;8.98;;;36.30;80.00;;;;;;5093868;28;20507;-69
2023/07/23 08:11:07;;;;;;;32.13;9.30;;;36.20;80.80;;;;;;5093708;28;20050;-70
2023/07/23 08:14:14;;;;;;;36.47;9.38;;;36.10;80.10;;;;;;5093481;28;20051;-71
2023/07/23 08:17:18;;;;;;;27.58;8.98;;;36.00;80.70;;;;;;5092940;28;20538;-71
2023/07/23 08:20:22;;;;;;;34.38;9.93;;;36.00;81.10;;;;;;5093276;28;20039;-70
2023/07/23 08:23:26;;;;;;;37.33;9.30;;;36.10;80.50;;;;;;5093437;28;20048;-71
2023/07/23 08:26:35;;;;;;;27.77;8.93;;;36.10;80.50;;;;;;5093613;28;20051;-71
2023/07/23 08:29:43;;;;;;;27.98;8.55;;;36.00;81.00;;;;;;5092133;28;20038;-71
2023/07/23 08:32:50;;;;;;;33.40;8.80;;;36.00;80.70;;;;;;5093275;28;20039;-71
2023/07/23 08:35:54;;;;;;;39.45;10.77;;;36.10;80.40;;;;;;5093455;28;20050;-71
2023/07/23 08:38:59;;;;;;;30.75;8.90;;;36.00;80.00;;;;;;5093327;28;20063;-71
2023/07/23 08:42:53;;;;;;;33.22;9.57;;;35.90;80.10;;;;;;5093131;28;20043;-71
2023/07/23 08:46:15;;;;;;;33.78;9.80;;;35.80;81.10;;;;;;5069690;28;20047;-71
2023/07/23 08:49:23;;;;;;;39.08;9.98;;;35.80;81.10;;;;;;5092833;28;20042;-71
2023/07/23 08:52:28;;;;;;;29.98;9.15;;;35.80;81.40;;;;;;5092830;28;20059;-71
2023/07/23 08:55:32;;;;;;;28.30;9.20;;;35.60;81.80;;;;;;5092964;28;20051;-71
2023/07/23 08:58:38;;;;;;;33.88;9.40;;;35.60;81.60;;;;;;5092805;28;20066;-71
2023/07/23 09:01:42;;;;;;;28.85;8.93;;;35.70;82.10;;;;;;5092742;28;20411;-71
2023/07/23 09:04:47;;;;;;;25.92;8.05;;;35.80;81.00;;;;;;5092571;28;20043;-71
2023/07/23 09:07:51;;;;;;;27.85;8.75;;;36.00;80.10;;;;;;5092430;28;20130;-71
2023/07/23 09:10:55;;;;;;;30.98;7.32;;;36.10;79.70;;;;;;5092692;28;20066;-71
2023/07/23 09:14:01;;;;;;;34.08;7.40;;;36.10;77.80;;;;;;5092441;28;20063;-71
2023/07/23 09:17:24;;;;;;;35.85;8.43;;;36.20;77.00;;;;;;5092389;28;20051;-71
2023/07/23 09:20:27;;;;;;;43.60;10.05;;;36.10;77.20;;;;;;5092425;28;20214;-71
2023/07/23 09:23:32;;;;;;;31.65;7.95;;;35.90;78.50;;;;;;5091761;28;20526;-71
2023/07/23 09:26:37;;;;;;;31.83;8.13;;;35.80;78.70;;;;;;5092399;28;20055;-71
2023/07/23 09:29:41;;;;;;;28.23;7.47;;;35.80;78.20;;;;;;5092209;28;20066;-71
2023/07/23 09:32:58;;;;;;;32.65;7.80;;;35.60;79.30;;;;;;5092043;28;20051;-71
2023/07/23 09:36:14;;;;;;;37.35;8.68;;;35.60;79.90;;;;;;5091707;28;20486;-71
2023/07/23 09:39:23;;;;;;;31.20;9.70;;;35.80;79.90;;;;;;5091969;28;20047;-71
2023/07/23 09:42:27;;;;;;;44.72;9.63;;;35.90;79.70;;;;;;5092554;28;20047;-71
2023/07/23 09:45:36;;;;;;;26.67;8.25;;;36.10;80.00;;;;;;5091972;28;20301;-71
2023/07/23 09:48:48;;;;;;;25.52;7.40;;;36.20;79.20;;;;;;5091696;28;20042;-71
2023/07/23 09:51:52;;;;;;;32.22;8.38;;;36.30;78.40;;;;;;5092020;28;20035;-71
2023/07/23 09:54:56;;;;;;;27.70;8.07;;;36.40;78.50;;;;;;5091918;28;20043;-71
2023/07/23 09:58:02;;;;;;;35.53;7.95;;;36.50;78.60;;;;;;5091566;28;20055;-71
2023/07/23 10:01:07;;;;;;;31.10;8.38;;;36.50;78.70;;;;;;5091628;28;20050;-71
2023/07/23 10:04:14;;;;;;;29.95;7.53;;;36.60;79.20;;;;;;5091835;28;20039;-71
2023/07/23 10:07:19;;;;;;;27.77;8.00;;;36.70;78.70;;;;;;5091861;28;20035;-71
2023/07/23 10:10:23;;;;;;;25.00;8.23;;;36.70;79.00;;;;;;5091710;28;20043;-71
2023/07/23 10:13:28;;;;;;;38.03;8.70;;;36.70;79.20;;;;;;5091342;28;20043;-71
2023/07/23 10:16:42;;;;;;;26.17;7.85;;;36.80;78.70;;;;;;5091957;28;20476;-71
2023/07/23 10:19:47;;;;;;;29.80;8.27;;;36.80;78.50;;;;;;5091532;28;20083;-71
2023/07/23 10:22:51;;;;;;;29.20;7.38;;;36.90;78.50;;;;;;5091492;28;20043;-70
2023/07/23 10:26:22;;;;;;;23.02;7.40;;;36.90;77.90;;;;;;5090914;28;20122;-71
2023/07/23 10:29:26;;;;;;;24.77;7.30;;;36.90;77.40;;;;;;5090800;28;20047;-70
2023/07/23 10:32:31;;;;;;;23.17;7.20;;;36.90;76.60;;;;;;5090370;28;20047;-71
2023/07/23 10:35:58;;;;;;;25.50;7.78;;;36.90;76.40;;;;;;5091208;28;20043;-71
2023/07/23 10:39:14;;;;;;;34.67;9.13;;;36.80;76.60;;;;;;5091026;28;20070;-72
2023/07/23 10:42:40;;;;;;;29.92;8.57;;;36.70;76.80;;;;;;5090883;28;20043;-70
2023/07/23 10:46:01;;;;;;;24.42;7.22;;;36.60;76.80;;;;;;5090776;28;20043;-71
2023/07/23 10:49:05;;;;;;;32.58;8.20;;;36.50;77.00;;;;;;5091057;28;20051;-71
2023/07/23 10:52:13;;;;;;;21.95;6.32;;;36.60;76.90;;;;;;5090514;28;20064;-71
2023/07/23 10:55:40;;;;;;;25.67;7.85;;;36.50;77.00;;;;;;5091228;28;20190;-71
2023/07/23 10:58:44;;;;;;;29.17;7.50;;;36.50;77.00;;;;;;5090886;28;20494;-71
2023/07/23 11:01:51;;;;;;;21.70;7.53;;;36.50;77.30;;;;;;5090933;28;20046;-71
2023/07/23 11:04:57;;;;;;;30.38;8.02;;;36.50;77.60;;;;;;5090904;28;20051;-71
2023/07/23 11:08:14;;;;;;;25.17;7.35;;;36.50;77.30;;;;;;5091053;28;20039;-71
2023/07/23 11:11:27;;;;;;;24.98;6.80;;;36.50;77.40;;;;;;5090821;28;20051;-71
2023/07/23 11:14:34;;;;;;;33.55;8.30;;;36.40;76.70;;;;;;5090179;28;20043;-71
2023/07/23 11:17:38;;;;;;;29.95;9.55;;;36.30;76.80;;;;;;5090540;28;20047;-71
2023/07/23 11:20:46;;;;;;;35.30;8.77;;;36.30;77.40;;;;;;5090928;28;20043;-71
2023/07/23 11:23:50;;;;;;;31.52;10.52;;;36.20;76.90;;;;;;5090561;28;20047;-70
2023/07/23 11:26:59;;;;;;;25.20;7.50;;;36.10;77.50;;;;;;5090661;28;20055;-71
2023/07/23 11:30:03;;;;;;;27.70;7.82;;;36.10;78.10;;;;;;5090757;28;20051;-71
2023/07/23 11:33:12;;;;;;;32.83;8.23;;;36.10;77.10;;;;;;5089913;28;20043;-71
2023/07/23 11:36:17;;;;;;;26.98;8.32;;;36.10;77.10;;;;;;5090740;28;20055;-71
2023/07/23 11:39:25;;;;;;;20.17;7.13;;;36.20;76.40;;;;;;5090491;28;20506;-71
2023/07/23 11:42:32;;;;;;;37.83;7.50;;;36.10;76.70;;;;;;5090434;28;20035;-71
2023/07/23 11:45:49;;;;;;;26.15;8.05;;;36.10;76.80;;;;;;5090518;28;20043;-71
2023/07/23 11:48:57;;;;;;;28.90;7.55;;;36.10;77.30;;;;;;5090421;28;20047;-71
2023/07/23 11:52:01;;;;;;;32.85;9.32;;;36.00;77.60;;;;;;5089653;28;20039;-71
2023/07/23 11:55:06;;;;;;;31.15;7.93;;;36.00;77.30;;;;;;5090370;28;20043;-71
2023/07/23 11:58:18;;;;;;;34.65;7.93;;;36.00;77.30;;;;;;5090336;28;20055;-71
2023/07/23 12:01:22;;;;;;;30.48;7.90;;;36.00;77.80;;;;;;5090363;28;20043;-72
2023/07/23 12:04:26;;;;;;;25.42;7.70;;;36.00;78.60;;;;;;5092583;28;20047;-71
2023/07/23 12:07:30;;;;;;;31.58;7.70;;;36.00;79.10;;;;;;5093341;28;20506;-72
2023/07/23 12:10:34;;;;;;;27.17;7.50;;;36.00;78.40;;;;;;5093779;28;20055;-71
2023/07/23 12:13:54;;;;;;;24.30;7.30;;;36.00;78.80;;;;;;5093998;28;20043;-71
2023/07/23 12:16:58;;;;;;;20.30;7.32;;;36.00;78.60;;;;;;5093671;28;20047;-72
2023/07/23 12:20:03;;;;;;;34.00;7.00;;;36.00;77.80;;;;;;5093847;28;20051;-72
2023/07/23 12:23:07;;;;;;;29.40;7.93;;;35.90;78.00;;;;;;5093637;28;20039;-71
2023/07/23 12:26:11;;;;;;;23.67;7.43;;;35.90;78.00;;;;;;5093712;28;20055;-71
2023/07/23 12:29:16;;;;;;;38.60;7.95;;;35.90;78.10;;;;;;5093321;28;20046;-71
2023/07/23 12:32:20;;;;;;;26.85;7.45;;;35.90;78.20;;;;;;5093355;28;20039;-72
2023/07/23 12:35:24;;;;;;;35.70;8.00;;;35.90;78.10;;;;;;5093672;28;20039;-71
2023/07/23 12:38:27;;;;;;;29.70;7.20;;;35.90;78.20;;;;;;5093214;28;20059;-71
2023/07/23 12:41:31;;;;;;;36.85;7.55;;;35.90;78.40;;;;;;5093494;28;20043;-71
2023/07/23 12:44:35;;;;;;;31.38;8.25;;;35.80;78.10;;;;;;5093161;28;20051;-71
2023/07/23 12:47:39;;;;;;;34.45;8.23;;;35.80;77.90;;;;;;5093125;28;20066;-71
2023/07/23 12:50:43;;;;;;;30.40;8.73;;;35.80;78.50;;;;;;5093429;28;20043;-71
2023/07/23 12:53:47;;;;;;;28.77;7.60;;;35.70;78.60;;;;;;5093209;28;20047;-71
2023/07/23 12:56:53;;;;;;;22.60;6.63;;;35.70;78.60;;;;;;5092852;28;20031;-71
2023/07/23 12:59:56;;;;;;;28.45;7.07;;;35.60;78.60;;;;;;5093095;28;20157;-71
2023/07/23 13:03:00;;;;;;;26.40;7.07;;;35.60;78.00;;;;;;5092819;28;20051;-71
2023/07/23 13:06:04;;;;;;;26.38;7.35;;;35.50;78.40;;;;;;5092985;28;20051;-71
2023/07/23 13:09:09;;;;;;;30.13;7.00;;;35.50;79.20;;;;;;5092796;28;20380;-71
2023/07/23 13:12:13;;;;;;;30.45;7.10;;;35.50;79.70;;;;;;5092812;28;20051;-71
2023/07/23 13:15:17;;;;;;;30.50;7.45;;;35.40;79.60;;;;;;5091399;28;20047;-71
2023/07/23 13:18:20;;;;;;;30.42;8.15;;;35.40;79.70;;;;;;5092642;28;20055;-71
2023/07/23 13:21:26;;;;;;;32.58;8.68;;;35.30;80.30;;;;;;5092675;28;20043;-71
2023/07/23 13:24:30;;;;;;;29.25;8.57;;;35.30;80.70;;;;;;5092415;28;20058;-72
2023/07/23 13:27:33;;;;;;;39.05;8.40;;;35.20;81.40;;;;;;5092312;28;20423;-71
2023/07/23 13:30:38;;;;;;;31.95;8.10;;;35.20;81.20;;;;;;5092259;28;20039;-71
2023/07/23 13:33:42;;;;;;;31.25;7.65;;;35.20;81.40;;;;;;5092538;28;20047;-71
2023/07/23 13:36:45;;;;;;;32.10;8.07;;;35.10;80.50;;;;;;5092292;28;20043;-71
2023/07/23 13:39:49;;;;;;;28.02;7.53;;;35.10;81.20;;;;;;5092106;28;20047;-71
2023/07/23 13:42:53;;;;;;;27.27;7.13;;;35.00;80.40;;;;;;5091887;28;20038;-71
2023/07/23 13:45:57;;;;;;;32.35;8.23;;;35.00;79.90;;;;;;5092021;28;20039;-71
2023/07/23 13:49:04;;;;;;;42.63;7.97;;;35.10;79.90;;;;;;5091639;28;20047;-71
2023/07/23 13:52:08;;;;;;;32.78;7.43;;;35.00;79.70;;;;;;5092074;28;20043;-71
2023/07/23 13:55:12;;;;;;;33.50;8.93;;;35.00;79.80;;;;;;5091884;28;20059;-71
2023/07/23 13:58:16;;;;;;;30.50;7.22;;;35.00;79.90;;;;;;5091526;28;20062;-71
2023/07/23 14:01:20;;;;;;;22.45;6.85;;;35.00;80.30;;;;;;5091847;28;20043;-71
2023/07/23 14:04:25;;;;;;;26.27;7.25;;;35.00;80.50;;;;;;5091436;28;20055;-71
2023/07/23 14:07:29;;;;;;;25.60;6.82;;;35.00;79.50;;;;;;5091412;28;20039;-71
2023/07/23 14:10:33;;;;;;;26.35;7.93;;;35.00;80.10;;;;;;5091409;28;20058;-71
2023/07/23 14:13:36;;;;;;;32.25;7.20;;;35.00;80.60;;;;;;5091627;28;20043;-71
2023/07/23 14:16:40;;;;;;;30.15;7.90;;;34.90;78.90;;;;;;5090922;28;20051;-71
2023/07/23 14:19:45;;;;;;;31.33;8.10;;;34.90;78.30;;;;;;5091267;28;20422;-71
2023/07/23 14:22:49;;;;;;;35.65;9.25;;;34.80;78.20;;;;;;5091737;28;20043;-71
2023/07/23 14:25:53;;;;;;;36.83;7.70;;;35.00;80.50;;;;;;5090374;28;20051;-71
2023/07/23 14:28:57;;;;;;;34.67;7.75;;;35.70;79.40;;;;;;5090963;28;20505;-71
2023/07/23 14:32:02;;;;;;;41.92;8.50;;;36.80;76.40;;;;;;5091004;28;20051;-71
2023/07/23 14:35:07;;;;;;;28.95;7.47;;;37.40;76.10;;;;;;5091447;28;20043;-72
2023/07/23 14:38:11;;;;;;;35.17;6.80;;;37.60;74.50;;;;;;5090952;28;20039;-71
2023/07/23 14:41:15;;;;;;;32.53;7.75;;;37.50;76.00;;;;;;5091219;28;20051;-71
2023/07/23 14:44:19;;;;;;;34.88;7.95;;;37.60;75.90;;;;;;5091113;28;20044;-71
2023/07/23 14:47:22;;;;;;;28.67;7.53;;;37.90;75.20;;;;;;5090798;28;20047;-71
2023/07/23 14:50:28;;;;;;;31.70;7.00;;;38.30;75.00;;;;;;5091122;28;20059;-71
2023/07/23 14:53:32;;;;;;;29.55;7.85;;;38.50;73.80;;;;;;5090945;28;20039;-71
2023/07/23 14:56:35;;;;;;;24.58;7.25;;;38.50;74.50;;;;;;5090838;28;20043;-71
2023/07/23 14:59:39;;;;;;;34.08;7.88;;;38.60;73.70;;;;;;5090095;28;20067;-71
2023/07/23 15:02:43;;;;;;;34.88;7.47;;;38.80;72.50;;;;;;5090511;28;20047;-71
2023/07/23 15:05:47;;;;;;;27.85;7.47;;;38.80;72.50;;;;;;5090839;28;20047;-70
2023/07/23 15:08:51;;;;;;;33.72;8.00;;;38.70;73.60;;;;;;5090793;28;20391;-71
2023/07/23 15:11:55;;;;;;;34.80;8.10;;;38.50;74.50;;;;;;5091161;28;20047;-71
2023/07/23 15:15:00;;;;;;;29.98;6.63;;;38.50;73.90;;;;;;5090678;28;20186;-70
2023/07/23 15:18:04;;;;;;;70.60;10.20;;;38.60;72.00;;;;;;5090705;28;20043;-70
2023/07/23 15:21:08;;;;;;;50.92;9.98;;;38.30;72.90;;;;;;5090636;28;20043;-71
2023/07/23 15:24:14;;;;;;;30.90;7.32;;;38.20;72.40;;;;;;5090676;28;20050;-71
2023/07/23 15:27:21;;;;;;;29.80;7.63;;;38.60;72.80;;;;;;5090632;28;20039;-71
2023/07/23 15:30:25;;;;;;;30.17;7.35;;;38.80;73.40;;;;;;5090893;28;20046;-71
2023/07/23 15:33:29;;;;;;;29.52;7.45;;;39.00;73.60;;;;;;5090815;28;20043;-70
2023/07/23 15:36:36;;;;;;;33.15;8.05;;;38.80;72.70;;;;;;5089943;28;20047;-71
2023/07/23 15:39:39;;;;;;;31.55;7.90;;;38.50;72.30;;;;;;5093591;28;20276;-71
2023/07/23 15:42:43;;;;;;;32.58;7.90;;;37.80;73.70;;;;;;5093349;28;20047;-71
2023/07/23 15:45:47;;;;;;;30.73;7.90;;;37.10;75.50;;;;;;5093626;28;20067;-70
2023/07/23 15:48:51;;;;;;;27.85;7.35;;;36.60;78.40;;;;;;5094401;28;20118;-71